sensor_id;sensor_type;location;lat;lon;timestamp;pressure;altitude;pressure_sealevel;temperature;humidity
10638;BME280;47007;49.252;8.904;2023-02-20T00:00:22;100852.66;;;9.36;100.00
10638;BME280;47007;49.252;8.904;2023-02-20T00:01:04;100844.47;;;9.29;100.00
10638;BME280;47007;49.252;8.904;2023-02-20T00:01:52;100852.50;;;9.38;100.00
10638;BME280;47007;49.252;8.904;2023-02-20T00:02:34;100866.31;;;9.31;100.00
10638;BME280;47007;49.252;8.904;2023-02-20T00:03:16;100852.56;;;9.28;100.00
10638;BME280;47007;49.252;8.904;2023-02-20T00:03:58;100851.91;;;9.26;100.00
10638;BME280;47007;49.252;8.904;2023-02-20T00:04:40;100851.06;;;9.25;100.00
10638;BME280;47007;49.252;8.904;2023-02-20T00:05:23;100834.56;;;9.14;100.00
10638;BME280;47007;49.252;8.904;2023-02-20T00:06:05;100847.47;;;9.17;100.00
10638;BME280;47007;49.252;8.904;2023-02-20T00:06:46;100863.31;;;9.26;100.00
10638;BME280;47007;49.252;8.904;2023-02-20T00:07:28;100871.06;;;9.28;100.00
10638;BME280;47007;49.252;8.904;2023-02-20T00:08:10;100852.34;;;9.21;100.00
10638;BME280;47007;49.252;8.904;2023-02-20T00:08:52;100858.31;;;9.23;100.00
10638;BME280;47007;49.252;8.904;2023-02-20T00:09:33;100841.53;;;9.15;100.00
10638;BME280;47007;49.252;8.904;2023-02-20T00:10:16;100868.06;;;9.23;100.00
10638;BME280;47007;49.252;8.904;2023-02-20T00:10:58;100865.78;;;9.28;100.00
10638;BME280;47007;49.252;8.904;2023-02-20T00:11:40;100871.75;;;9.30;100.00
10638;BME280;47007;49.252;8.904;2023-02-20T00:12:22;100839.88;;;9.14;100.00
10638;BME280;47007;49.252;8.904;2023-02-20T00:13:03;100869.44;;;9.27;100.00
10638;BME280;47007;49.252;8.904;2023-02-20T00:13:46;100866.09;;;9.25;100.00
10638;BME280;47007;49.252;8.904;2023-02-20T00:14:28;100869.72;;;9.24;100.00
10638;BME280;47007;49.252;8.904;2023-02-20T00:15:13;100871.38;;;9.25;100.00
10638;BME280;47007;49.252;8.904;2023-02-20T00:15:55;100879.63;;;9.22;100.00
10638;BME280;47007;49.252;8.904;2023-02-20T00:16:37;100873.63;;;9.20;100.00
10638;BME280;47007;49.252;8.904;2023-02-20T00:17:19;100837.72;;;8.99;100.00
10638;BME280;47007;49.252;8.904;2023-02-20T00:18:01;100869.72;;;9.24;100.00
10638;BME280;47007;49.252;8.904;2023-02-20T00:18:43;100862.06;;;9.21;100.00
10638;BME280;47007;49.252;8.904;2023-02-20T00:19:25;100876.22;;;9.29;100.00
10638;BME280;47007;49.252;8.904;2023-02-20T00:20:07;100841.41;;;9.07;100.00
10638;BME280;47007;49.252;8.904;2023-02-20T00:20:49;100870.56;;;9.24;100.00
10638;BME280;47007;49.252;8.904;2023-02-20T00:21:31;100879.19;;;9.26;100.00
10638;BME280;47007;49.252;8.904;2023-02-20T00:22:12;100882.66;;;9.27;100.00
10638;BME280;47007;49.252;8.904;2023-02-20T00:22:54;100883.47;;;9.27;100.00
10638;BME280;47007;49.252;8.904;2023-02-20T00:23:36;100876.28;;;9.20;100.00
10638;BME280;47007;49.252;8.904;2023-02-20T00:24:18;100892.41;;;9.26;100.00
10638;BME280;47007;49.252;8.904;2023-02-20T00:25:00;100870.31;;;9.18;100.00
10638;BME280;47007;49.252;8.904;2023-02-20T00:25:41;100883.63;;;9.26;100.00
10638;BME280;47007;49.252;8.904;2023-02-20T00:26:23;100865.84;;;9.18;100.00
10638;BME280;47007;49.252;8.904;2023-02-20T00:27:05;100873.91;;;9.26;100.00
10638;BME280;47007;49.252;8.904;2023-02-20T00:27:47;100886.94;;;9.28;100.00
10638;BME280;47007;49.252;8.904;2023-02-20T00:28:29;100872.25;;;9.16;100.00
10638;BME280;47007;49.252;8.904;2023-02-20T00:29:14;100882.84;;;9.16;100.00
10638;BME280;47007;49.252;8.904;2023-02-20T00:29:55;100877.88;;;9.13;100.00
10638;BME280;47007;49.252;8.904;2023-02-20T00:30:37;100863.19;;;9.00;100.00
10638;BME280;47007;49.252;8.904;2023-02-20T00:31:19;100869.81;;;9.05;100.00
10638;BME280;47007;49.252;8.904;2023-02-20T00:32:01;100875.94;;;9.05;100.00
10638;BME280;47007;49.252;8.904;2023-02-20T00:32:47;100869.00;;;9.04;100.00
10638;BME280;47007;49.252;8.904;2023-02-20T00:33:29;100866.13;;;8.97;100.00
10638;BME280;47007;49.252;8.904;2023-02-20T00:34:11;100853.78;;;8.88;100.00
10638;BME280;47007;49.252;8.904;2023-02-20T00:34:53;100860.75;;;8.89;100.00
10638;BME280;47007;49.252;8.904;2023-02-20T00:35:35;100876.84;;;8.96;100.00
10638;BME280;47007;49.252;8.904;2023-02-20T00:36:20;100874.47;;;8.93;100.00
10638;BME280;47007;49.252;8.904;2023-02-20T00:37:02;100876.44;;;8.91;100.00
10638;BME280;47007;49.252;8.904;2023-02-20T00:37:47;100854.81;;;8.78;100.00
10638;BME280;47007;49.252;8.904;2023-02-20T00:38:29;100867.97;;;8.87;100.00
10638;BME280;47007;49.252;8.904;2023-02-20T00:39:11;100850.25;;;8.70;100.00
10638;BME280;47007;49.252;8.904;2023-02-20T00:39:53;100835.97;;;8.63;100.00
10638;BME280;47007;49.252;8.904;2023-02-20T00:40:35;100873.41;;;8.86;100.00
10638;BME280;47007;49.252;8.904;2023-02-20T00:41:16;100843.97;;;8.71;100.00
10638;BME280;47007;49.252;8.904;2023-02-20T00:41:59;100872.72;;;8.84;100.00
10638;BME280;47007;49.252;8.904;2023-02-20T00:42:41;100869.78;;;8.87;100.00
10638;BME280;47007;49.252;8.904;2023-02-20T00:43:23;100852.47;;;8.75;100.00
10638;BME280;47007;49.252;8.904;2023-02-20T00:44:04;100852.97;;;8.78;100.00
10638;BME280;47007;49.252;8.904;2023-02-20T00:44:46;100864.03;;;8.91;100.00
10638;BME280;47007;49.252;8.904;2023-02-20T00:45:28;100872.94;;;8.90;100.00
10638;BME280;47007;49.252;8.904;2023-02-20T00:46:11;100874.94;;;8.88;100.00
10638;BME280;47007;49.252;8.904;2023-02-20T00:46:55;100872.72;;;8.84;100.00
10638;BME280;47007;49.252;8.904;2023-02-20T00:47:37;100873.69;;;8.83;100.00
10638;BME280;47007;49.252;8.904;2023-02-20T00:48:19;100856.91;;;8.74;100.00
10638;BME280;47007;49.252;8.904;2023-02-20T00:49:01;100864.78;;;8.84;100.00
10638;BME280;47007;49.252;8.904;2023-02-20T00:50:01;100864.94;;;8.82;100.00
10638;BME280;47007;49.252;8.904;2023-02-20T00:50:43;100851.34;;;8.77;100.00
10638;BME280;47007;49.252;8.904;2023-02-20T00:51:25;100834.97;;;8.64;100.00
10638;BME280;47007;49.252;8.904;2023-02-20T00:52:07;100862.56;;;8.79;100.00
10638;BME280;47007;49.252;8.904;2023-02-20T00:52:49;100858.44;;;8.77;100.00
10638;BME280;47007;49.252;8.904;2023-02-20T00:53:31;100828.88;;;8.54;100.00
10638;BME280;47007;49.252;8.904;2023-02-20T00:54:14;100855.66;;;8.69;100.00
10638;BME280;47007;49.252;8.904;2023-02-20T00:54:55;100842.78;;;8.56;100.00
10638;BME280;47007;49.252;8.904;2023-02-20T00:55:37;100841.13;;;8.55;100.00
10638;BME280;47007;49.252;8.904;2023-02-20T00:56:19;100860.56;;;8.63;100.00
10638;BME280;47007;49.252;8.904;2023-02-20T00:57:00;100847.09;;;8.57;100.00
10638;BME280;47007;49.252;8.904;2023-02-20T00:57:42;100861.56;;;8.62;100.00
10638;BME280;47007;49.252;8.904;2023-02-20T00:58:24;100839.06;;;8.49;100.00
10638;BME280;47007;49.252;8.904;2023-02-20T00:59:06;100855.03;;;8.57;100.00
10638;BME280;47007;49.252;8.904;2023-02-20T00:59:47;100843.91;;;8.53;100.00
10638;BME280;47007;49.252;8.904;2023-02-20T01:00:31;100856.97;;;8.55;100.00
10638;BME280;47007;49.252;8.904;2023-02-20T01:01:13;100849.78;;;8.47;100.00
10638;BME280;47007;49.252;8.904;2023-02-20T01:01:57;100825.63;;;8.33;100.00
10638;BME280;47007;49.252;8.904;2023-02-20T01:02:38;100854.09;;;8.48;100.00
10638;BME280;47007;49.252;8.904;2023-02-20T01:03:20;100854.00;;;8.40;100.00
10638;BME280;47007;49.252;8.904;2023-02-20T01:04:02;100838.13;;;8.30;100.00
10638;BME280;47007;49.252;8.904;2023-02-20T01:04:44;100858.44;;;8.40;100.00
10638;BME280;47007;49.252;8.904;2023-02-20T01:05:26;100852.03;;;8.33;100.00
10638;BME280;47007;49.252;8.904;2023-02-20T01:06:08;100837.59;;;8.27;100.00
10638;BME280;47007;49.252;8.904;2023-02-20T01:06:50;100855.38;;;8.35;100.00
10638;BME280;47007;49.252;8.904;2023-02-20T01:07:32;100841.63;;;8.21;100.00
10638;BME280;47007;49.252;8.904;2023-02-20T01:08:14;100856.50;;;8.32;100.00
10638;BME280;47007;49.252;8.904;2023-02-20T01:08:55;100854.94;;;8.29;100.00
10638;BME280;47007;49.252;8.904;2023-02-20T01:09:37;100851.63;;;8.27;100.00
10638;BME280;47007;49.252;8.904;2023-02-20T01:10:19;100825.94;;;8.10;100.00
10638;BME280;47007;49.252;8.904;2023-02-20T01:11:01;100847.03;;;8.20;100.00
10638;BME280;47007;49.252;8.904;2023-02-20T01:11:43;100852.59;;;8.26;100.00
10638;BME280;47007;49.252;8.904;2023-02-20T01:12:25;100831.66;;;8.15;100.00
10638;BME280;47007;49.252;8.904;2023-02-20T01:13:07;100840.22;;;8.17;100.00
10638;BME280;47007;49.252;8.904;2023-02-20T01:13:49;100836.75;;;8.17;100.00
10638;BME280;47007;49.252;8.904;2023-02-20T01:14:30;100851.75;;;8.26;100.00
10638;BME280;47007;49.252;8.904;2023-02-20T01:15:15;100854.69;;;8.23;100.00
10638;BME280;47007;49.252;8.904;2023-02-20T01:15:56;100845.69;;;8.16;100.00
10638;BME280;47007;49.252;8.904;2023-02-20T01:16:46;100836.50;;;8.10;100.00
10638;BME280;47007;49.252;8.904;2023-02-20T01:17:28;100834.97;;;8.08;100.00
10638;BME280;47007;49.252;8.904;2023-02-20T01:18:10;100860.69;;;8.15;100.00
10638;BME280;47007;49.252;8.904;2023-02-20T01:18:52;100849.13;;;8.16;100.00
10638;BME280;47007;49.252;8.904;2023-02-20T01:19:34;100853.44;;;8.17;100.00
10638;BME280;47007;49.252;8.904;2023-02-20T01:20:16;100852.91;;;8.14;100.00
10638;BME280;47007;49.252;8.904;2023-02-20T01:20:57;100855.41;;;8.15;100.00
10638;BME280;47007;49.252;8.904;2023-02-20T01:21:39;100835.41;;;8.03;100.00
10638;BME280;47007;49.252;8.904;2023-02-20T01:22:21;100837.38;;;8.01;100.00
10638;BME280;47007;49.252;8.904;2023-02-20T01:23:03;100832.63;;;7.95;100.00
10638;BME280;47007;49.252;8.904;2023-02-20T01:23:45;100846.22;;;8.10;100.00
10638;BME280;47007;49.252;8.904;2023-02-20T01:24:27;100839.44;;;7.98;100.00
10638;BME280;47007;49.252;8.904;2023-02-20T01:25:09;100856.25;;;8.06;100.00
10638;BME280;47007;49.252;8.904;2023-02-20T01:25:51;100827.09;;;7.88;100.00
10638;BME280;47007;49.252;8.904;2023-02-20T01:26:33;100846.66;;;8.05;100.00
10638;BME280;47007;49.252;8.904;2023-02-20T01:27:15;100835.97;;;7.97;100.00
10638;BME280;47007;49.252;8.904;2023-02-20T01:27:57;100850.25;;;8.04;100.00
10638;BME280;47007;49.252;8.904;2023-02-20T01:28:42;100848.44;;;8.05;100.00
10638;BME280;47007;49.252;8.904;2023-02-20T01:29:24;100852.63;;;8.07;100.00
10638;BME280;47007;49.252;8.904;2023-02-20T01:30:06;100840.28;;;7.98;100.00
10638;BME280;47007;49.252;8.904;2023-02-20T01:30:49;100859.00;;;8.05;100.00
10638;BME280;47007;49.252;8.904;2023-02-20T01:31:31;100855.84;;;8.01;100.00
10638;BME280;47007;49.252;8.904;2023-02-20T01:32:13;100829.47;;;7.82;100.00
10638;BME280;47007;49.252;8.904;2023-02-20T01:32:55;100862.25;;;7.99;100.00
10638;BME280;47007;49.252;8.904;2023-02-20T01:33:40;100844.59;;;7.89;100.00
10638;BME280;47007;49.252;8.904;2023-02-20T01:34:22;100852.66;;;7.88;100.00
10638;BME280;47007;49.252;8.904;2023-02-20T01:35:04;100852.94;;;7.94;100.00
10638;BME280;47007;49.252;8.904;2023-02-20T01:35:47;100850.88;;;7.88;100.00
10638;BME280;47007;49.252;8.904;2023-02-20T01:36:29;100839.75;;;7.85;100.00
10638;BME280;47007;49.252;8.904;2023-02-20T01:37:14;100851.00;;;7.87;100.00
10638;BME280;47007;49.252;8.904;2023-02-20T01:37:55;100854.47;;;7.87;100.00
10638;BME280;47007;49.252;8.904;2023-02-20T01:38:41;100827.66;;;7.73;100.00
10638;BME280;47007;49.252;8.904;2023-02-20T01:39:27;100854.03;;;7.82;100.00
10638;BME280;47007;49.252;8.904;2023-02-20T01:40:18;100851.53;;;7.81;100.00
10638;BME280;47007;49.252;8.904;2023-02-20T01:41:00;100821.84;;;7.60;100.00
10638;BME280;47007;49.252;8.904;2023-02-20T01:41:42;100833.78;;;7.64;100.00
10638;BME280;47007;49.252;8.904;2023-02-20T01:42:28;100847.53;;;7.77;100.00
10638;BME280;47007;49.252;8.904;2023-02-20T01:43:10;100828.50;;;7.64;100.00
10638;BME280;47007;49.252;8.904;2023-02-20T01:43:52;100828.66;;;7.62;100.00
10638;BME280;47007;49.252;8.904;2023-02-20T01:44:36;100856.00;;;7.80;100.00
10638;BME280;47007;49.252;8.904;2023-02-20T01:47:17;100847.41;;;7.78;100.00
10638;BME280;47007;49.252;8.904;2023-02-20T01:48:00;100861.25;;;7.80;100.00
10638;BME280;47007;49.252;8.904;2023-02-20T01:48:42;100849.34;;;7.76;100.00
10638;BME280;47007;49.252;8.904;2023-02-20T01:50:35;100847.25;;;7.70;100.00
10638;BME280;47007;49.252;8.904;2023-02-20T01:51:18;100848.34;;;7.68;100.00
10638;BME280;47007;49.252;8.904;2023-02-20T01:52:18;100837.66;;;7.60;100.00
10638;BME280;47007;49.252;8.904;2023-02-20T01:53:06;100836.56;;;7.62;100.00
10638;BME280;47007;49.252;8.904;2023-02-20T01:53:48;100847.53;;;7.67;100.00
10638;BME280;47007;49.252;8.904;2023-02-20T01:54:31;100838.78;;;7.67;100.00
10638;BME280;47007;49.252;8.904;2023-02-20T01:55:20;100833.66;;;7.65;100.00
10638;BME280;47007;49.252;8.904;2023-02-20T01:56:06;100837.97;;;7.66;100.00
10638;BME280;47007;49.252;8.904;2023-02-20T01:56:50;100822.13;;;7.56;100.00
10638;BME280;47007;49.252;8.904;2023-02-20T01:57:35;100839.59;;;7.67;100.00
10638;BME280;47007;49.252;8.904;2023-02-20T01:58:23;100836.84;;;7.69;100.00
10638;BME280;47007;49.252;8.904;2023-02-20T01:59:06;100842.09;;;7.69;100.00
10638;BME280;47007;49.252;8.904;2023-02-20T01:59:50;100838.78;;;7.67;100.00
10638;BME280;47007;49.252;8.904;2023-02-20T02:00:33;100808.81;;;7.48;100.00
10638;BME280;47007;49.252;8.904;2023-02-20T02:01:15;100838.25;;;7.63;100.00
10638;BME280;47007;49.252;8.904;2023-02-20T02:01:59;100827.00;;;7.51;100.00
10638;BME280;47007;49.252;8.904;2023-02-20T02:02:47;100834.59;;;7.54;100.00
10638;BME280;47007;49.252;8.904;2023-02-20T02:03:34;100834.34;;;7.57;100.00
10638;BME280;47007;49.252;8.904;2023-02-20T02:04:18;100836.84;;;7.59;100.00
10638;BME280;47007;49.252;8.904;2023-02-20T02:05:02;100816.97;;;7.45;100.00
10638;BME280;47007;49.252;8.904;2023-02-20T02:05:47;100832.13;;;7.53;100.00
10638;BME280;47007;49.252;8.904;2023-02-20T02:06:31;100836.97;;;7.57;100.00
10638;BME280;47007;49.252;8.904;2023-02-20T02:07:15;100832.53;;;7.58;100.00
10638;BME280;47007;49.252;8.904;2023-02-20T02:07:57;100831.84;;;7.56;100.00
10638;BME280;47007;49.252;8.904;2023-02-20T02:08:41;100831.16;;;7.54;100.00
10638;BME280;47007;49.252;8.904;2023-02-20T02:10:17;100819.34;;;7.48;100.00
10638;BME280;47007;49.252;8.904;2023-02-20T02:11:48;100827.25;;;7.58;100.00
10638;BME280;47007;49.252;8.904;2023-02-20T02:12:31;100821.97;;;7.58;100.00
10638;BME280;47007;49.252;8.904;2023-02-20T02:13:12;100805.31;;;7.48;100.00
10638;BME280;47007;49.252;8.904;2023-02-20T02:13:54;100826.69;;;7.54;100.00
10638;BME280;47007;49.252;8.904;2023-02-20T02:14:37;100835.16;;;7.58;100.00
10638;BME280;47007;49.252;8.904;2023-02-20T02:15:22;100827.69;;;7.53;100.00
10638;BME280;47007;49.252;8.904;2023-02-20T02:22:17;100820.72;;;7.43;100.00
10638;BME280;47007;49.252;8.904;2023-02-20T02:38:42;100821.28;;;7.37;100.00
10638;BME280;47007;49.252;8.904;2023-02-20T02:39:50;100832.25;;;7.42;100.00
10638;BME280;47007;49.252;8.904;2023-02-20T02:40:41;100832.25;;;7.42;100.00
10638;BME280;47007;49.252;8.904;2023-02-20T02:43:54;100807.28;;;7.27;100.00
10638;BME280;47007;49.252;8.904;2023-02-20T02:45:47;100826.00;;;7.33;100.00
10638;BME280;47007;49.252;8.904;2023-02-20T02:47:41;100817.38;;;7.31;100.00
10638;BME280;47007;49.252;8.904;2023-02-20T02:48:36;100822.00;;;7.29;100.00
10638;BME280;47007;49.252;8.904;2023-02-20T02:49:55;100823.94;;;7.27;100.00
10638;BME280;47007;49.252;8.904;2023-02-20T02:50:41;100815.59;;;7.22;100.00
10638;BME280;47007;49.252;8.904;2023-02-20T02:51:29;100820.72;;;7.24;100.00
10638;BME280;47007;49.252;8.904;2023-02-20T02:52:13;100809.22;;;7.15;100.00
10638;BME280;47007;49.252;8.904;2023-02-20T02:53:16;100815.31;;;7.15;100.00
10638;BME280;47007;49.252;8.904;2023-02-20T02:54:55;100825.72;;;7.17;100.00
10638;BME280;47007;49.252;8.904;2023-02-20T02:55:36;100817.81;;;7.17;100.00
10638;BME280;47007;49.252;8.904;2023-02-20T02:56:18;100825.44;;;7.20;100.00
10638;BME280;47007;49.252;8.904;2023-02-20T02:57:22;100821.13;;;7.19;100.00
10638;BME280;47007;49.252;8.904;2023-02-20T02:58:05;100814.19;;;7.18;100.00
10638;BME280;47007;49.252;8.904;2023-02-20T02:58:49;100820.16;;;7.20;100.00
10638;BME280;47007;49.252;8.904;2023-02-20T02:59:32;100796.41;;;7.10;100.00
10638;BME280;47007;49.252;8.904;2023-02-20T03:01:21;100819.06;;;7.22;100.00
10638;BME280;47007;49.252;8.904;2023-02-20T03:02:06;100802.00;;;7.17;100.00
10638;BME280;47007;49.252;8.904;2023-02-20T03:03:25;100783.50;;;6.98;100.00
10638;BME280;47007;49.252;8.904;2023-02-20T03:04:11;100787.81;;;7.08;100.00
10638;BME280;47007;49.252;8.904;2023-02-20T03:04:54;100816.97;;;7.16;100.00
10638;BME280;47007;49.252;8.904;2023-02-20T03:06:43;100812.63;;;7.06;100.00
10638;BME280;47007;49.252;8.904;2023-02-20T03:07:27;100787.66;;;6.91;100.00
10638;BME280;47007;49.252;8.904;2023-02-20T03:08:22;100818.34;;;7.01;100.00
10638;BME280;47007;49.252;8.904;2023-02-20T03:09:15;100809.84;;;6.98;100.00
10638;BME280;47007;49.252;8.904;2023-02-20T03:10:07;100801.09;;;6.88;100.00
10638;BME280;47007;49.252;8.904;2023-02-20T03:10:50;100815.41;;;6.95;100.00
10638;BME280;47007;49.252;8.904;2023-02-20T03:11:37;100819.00;;;6.94;100.00
10638;BME280;47007;49.252;8.904;2023-02-20T03:12:21;100810.81;;;6.87;100.00
10638;BME280;47007;49.252;8.904;2023-02-20T03:13:05;100804.97;;;6.83;100.00
10638;BME280;47007;49.252;8.904;2023-02-20T03:14:11;100813.44;;;6.87;100.00
10638;BME280;47007;49.252;8.904;2023-02-20T03:15:37;100819.56;;;6.88;100.00
10638;BME280;47007;49.252;8.904;2023-02-20T03:16:21;100810.38;;;6.82;100.00
10638;BME280;47007;49.252;8.904;2023-02-20T03:18:51;100801.19;;;6.67;100.00
10638;BME280;47007;49.252;8.904;2023-02-20T03:19:40;100818.81;;;6.76;100.00
10638;BME280;47007;49.252;8.904;2023-02-20T03:20:23;100794.06;;;6.58;100.00
10638;BME280;47007;49.252;8.904;2023-02-20T03:21:14;100820.19;;;6.70;100.00
10638;BME280;47007;49.252;8.904;2023-02-20T03:21:58;100819.63;;;6.67;100.00
10638;BME280;47007;49.252;8.904;2023-02-20T03:22:43;100824.19;;;6.65;100.00
10638;BME280;47007;49.252;8.904;2023-02-20T03:23:33;100823.38;;;6.64;100.00
10638;BME280;47007;49.252;8.904;2023-02-20T03:24:19;100825.03;;;6.65;100.00
10638;BME280;47007;49.252;8.904;2023-02-20T03:25:10;100820.16;;;6.61;100.00
10638;BME280;47007;49.252;8.904;2023-02-20T03:25:58;100815.16;;;6.58;100.00
10638;BME280;47007;49.252;8.904;2023-02-20T03:26:42;100804.84;;;6.45;100.00
10638;BME280;47007;49.252;8.904;2023-02-20T03:27:37;100818.91;;;6.55;100.00
10638;BME280;47007;49.252;8.904;2023-02-20T03:28:32;100795.69;;;6.39;100.00
10638;BME280;47007;49.252;8.904;2023-02-20T03:29:21;100825.13;;;6.54;100.00
10638;BME280;47007;49.252;8.904;2023-02-20T03:30:16;100795.56;;;6.41;100.00
10638;BME280;47007;49.252;8.904;2023-02-20T03:31:11;100820.84;;;6.53;100.00
10638;BME280;47007;49.252;8.904;2023-02-20T03:32:07;100814.72;;;6.53;100.00
10638;BME280;47007;49.252;8.904;2023-02-20T03:33:17;100818.19;;;6.53;100.00
10638;BME280;47007;49.252;8.904;2023-02-20T03:34:21;100814.16;;;6.49;100.00
10638;BME280;47007;49.252;8.904;2023-02-20T03:35:27;100794.72;;;6.40;100.00
10638;BME280;47007;49.252;8.904;2023-02-20T03:36:33;100809.59;;;6.51;100.00
10638;BME280;47007;49.252;8.904;2023-02-20T03:37:39;100786.25;;;6.37;100.00
10638;BME280;47007;49.252;8.904;2023-02-20T03:38:46;100819.56;;;6.57;100.00
10638;BME280;47007;49.252;8.904;2023-02-20T03:39:51;100820.28;;;6.59;100.00
10638;BME280;47007;49.252;8.904;2023-02-20T03:40:55;100823.63;;;6.61;100.00
10638;BME280;47007;49.252;8.904;2023-02-20T03:41:58;100812.63;;;6.56;100.00
10638;BME280;47007;49.252;8.904;2023-02-20T03:43:09;100825.28;;;6.62;100.00
10638;BME280;47007;49.252;8.904;2023-02-20T03:44:14;100819.19;;;6.62;100.00
10638;BME280;47007;49.252;8.904;2023-02-20T03:44:58;100806.53;;;6.56;100.00
10638;BME280;47007;49.252;8.904;2023-02-20T03:45:42;100806.00;;;6.52;100.00
10638;BME280;47007;49.252;8.904;2023-02-20T03:46:31;100820.53;;;6.56;100.00
10638;BME280;47007;49.252;8.904;2023-02-20T03:47:17;100803.75;;;6.47;100.00
10638;BME280;47007;49.252;8.904;2023-02-20T03:48:07;100807.59;;;6.43;100.00
10638;BME280;47007;49.252;8.904;2023-02-20T03:48:58;100800.13;;;6.39;100.00
10638;BME280;47007;49.252;8.904;2023-02-20T03:49:41;100813.31;;;6.48;100.00
10638;BME280;47007;49.252;8.904;2023-02-20T03:50:27;100784.84;;;6.33;100.00
10638;BME280;47007;49.252;8.904;2023-02-20T03:51:28;100815.66;;;6.42;100.00
10638;BME280;47007;49.252;8.904;2023-02-20T03:52:44;100818.81;;;6.36;100.00
10638;BME280;47007;49.252;8.904;2023-02-20T03:53:28;100817.25;;;6.33;100.00
10638;BME280;47007;49.252;8.904;2023-02-20T03:54:11;100814.09;;;6.30;100.00
10638;BME280;47007;49.252;8.904;2023-02-20T03:54:53;100805.47;;;6.28;100.00
10638;BME280;47007;49.252;8.904;2023-02-20T03:55:35;100797.53;;;6.18;100.00
10638;BME280;47007;49.252;8.904;2023-02-20T03:56:23;100813.38;;;6.28;100.00
10638;BME280;47007;49.252;8.904;2023-02-20T03:57:12;100783.47;;;6.08;100.00
10638;BME280;47007;49.252;8.904;2023-02-20T03:58:00;100808.75;;;6.20;100.00
10638;BME280;47007;49.252;8.904;2023-02-20T03:58:51;100814.97;;;6.19;100.00
10638;BME280;47007;49.252;8.904;2023-02-20T03:59:39;100804.59;;;6.18;100.00
10638;BME280;47007;49.252;8.904;2023-02-20T04:00:28;100805.69;;;6.15;100.00
10638;BME280;47007;49.252;8.904;2023-02-20T04:01:13;100805.81;;;6.13;100.00
10638;BME280;47007;49.252;8.904;2023-02-20T04:02:02;100800.31;;;6.17;100.00
10638;BME280;47007;49.252;8.904;2023-02-20T04:02:47;100799.72;;;6.13;100.00
10638;BME280;47007;49.252;8.904;2023-02-20T04:03:36;100799.72;;;6.13;100.00
10638;BME280;47007;49.252;8.904;2023-02-20T04:04:27;100807.75;;;6.11;100.00
10638;BME280;47007;49.252;8.904;2023-02-20T04:05:16;100798.03;;;6.12;100.00
10638;BME280;47007;49.252;8.904;2023-02-20T04:06:03;100800.94;;;6.09;100.00
10638;BME280;47007;49.252;8.904;2023-02-20T04:06:50;100806.19;;;6.09;100.00
10638;BME280;47007;49.252;8.904;2023-02-20T04:08:59;100802.47;;;6.11;100.00
10638;BME280;47007;49.252;8.904;2023-02-20T04:09:45;100808.19;;;6.17;100.00
10638;BME280;47007;49.252;8.904;2023-02-20T04:10:50;100784.19;;;6.10;100.00
10638;BME280;47007;49.252;8.904;2023-02-20T04:11:38;100804.63;;;6.27;100.00
10638;BME280;47007;49.252;8.904;2023-02-20T04:12:25;100813.09;;;6.31;100.00
10638;BME280;47007;49.252;8.904;2023-02-20T04:13:07;100811.16;;;6.33;100.00
10638;BME280;47007;49.252;8.904;2023-02-20T04:13:53;100813.78;;;6.33;100.00
10638;BME280;47007;49.252;8.904;2023-02-20T04:14:36;100797.38;;;6.20;100.00
10638;BME280;47007;49.252;8.904;2023-02-20T04:15:19;100798.91;;;6.22;100.00
10638;BME280;47007;49.252;8.904;2023-02-20T04:16:02;100786.22;;;6.06;100.00
10638;BME280;47007;49.252;8.904;2023-02-20T04:16:50;100811.97;;;6.24;100.00
10638;BME280;47007;49.252;8.904;2023-02-20T04:17:42;100784.31;;;6.08;100.00
10638;BME280;47007;49.252;8.904;2023-02-20T04:18:29;100806.94;;;6.21;100.00
10638;BME280;47007;49.252;8.904;2023-02-20T04:19:11;100806.94;;;6.21;100.00
10638;BME280;47007;49.252;8.904;2023-02-20T04:19:54;100776.94;;;6.02;100.00
10638;BME280;47007;49.252;8.904;2023-02-20T04:20:36;100799.97;;;6.10;100.00
10638;BME280;47007;49.252;8.904;2023-02-20T04:22:22;100803.19;;;6.13;100.00
10638;BME280;47007;49.252;8.904;2023-02-20T04:23:13;100770.66;;;5.94;100.00
10638;BME280;47007;49.252;8.904;2023-02-20T04:24:26;100802.94;;;6.17;100.00
10638;BME280;47007;49.252;8.904;2023-02-20T04:25:32;100810.41;;;6.21;100.00
10638;BME280;47007;49.252;8.904;2023-02-20T04:26:19;100816.38;;;6.23;100.00
10638;BME280;47007;49.252;8.904;2023-02-20T04:27:04;100813.88;;;6.22;100.00
10638;BME280;47007;49.252;8.904;2023-02-20T04:27:48;100815.81;;;6.20;100.00
10638;BME280;47007;49.252;8.904;2023-02-20T04:28:30;100816.78;;;6.19;100.00
10638;BME280;47007;49.252;8.904;2023-02-20T04:29:15;100800.09;;;6.08;100.00
10638;BME280;47007;49.252;8.904;2023-02-20T04:29:58;100831.22;;;6.24;100.00
10638;BME280;47007;49.252;8.904;2023-02-20T04:30:39;100817.88;;;6.16;100.00
10638;BME280;47007;49.252;8.904;2023-02-20T04:31:22;100812.16;;;6.11;100.00
10638;BME280;47007;49.252;8.904;2023-02-20T04:32:04;100826.09;;;6.23;100.00
10638;BME280;47007;49.252;8.904;2023-02-20T04:32:49;100799.94;;;6.00;100.00
10638;BME280;47007;49.252;8.904;2023-02-20T04:33:31;100833.41;;;6.19;100.00
10638;BME280;47007;49.252;8.904;2023-02-20T04:34:17;100821.03;;;6.10;100.00
10638;BME280;47007;49.252;8.904;2023-02-20T04:35:00;100816.84;;;6.07;100.00
10638;BME280;47007;49.252;8.904;2023-02-20T04:35:42;100829.50;;;6.13;100.00
10638;BME280;47007;49.252;8.904;2023-02-20T04:36:24;100835.19;;;6.19;100.00
10638;BME280;47007;49.252;8.904;2023-02-20T04:37:15;100823.03;;;6.18;100.00
10638;BME280;47007;49.252;8.904;2023-02-20T04:37:57;100824.00;;;6.17;100.00
10638;BME280;47007;49.252;8.904;2023-02-20T04:38:39;100820.91;;;6.11;100.00